sensor_id;sensor_type;location;lat;lon;timestamp;pressure;altitude;pressure_sealevel;temperature;humidity
52249;BME280;38541;48.130;8.378;2023-07-08T00:01:15;93001.03;;;18.35;54.23
52249;BME280;38541;48.130;8.378;2023-07-08T00:03:42;93001.59;;;18.23;54.33
52249;BME280;38541;48.130;8.378;2023-07-08T00:06:25;92994.22;;;18.20;54.70
52249;BME280;38541;48.130;8.378;2023-07-08T00:08:52;92992.41;;;18.07;54.80
52249;BME280;38541;48.130;8.378;2023-07-08T00:11:19;92990.47;;;17.99;54.69
52249;BME280;38541;48.130;8.378;2023-07-08T00:13:45;92989.31;;;17.91;55.02
52249;BME280;38541;48.130;8.378;2023-07-08T00:16:15;92989.91;;;17.88;55.02
52249;BME280;38541;48.130;8.378;2023-07-08T00:18:42;92990.69;;;17.88;54.78
52249;BME280;38541;48.130;8.378;2023-07-08T00:21:10;92990.19;;;17.86;54.31
52249;BME280;38541;48.130;8.378;2023-07-08T00:23:50;92984.41;;;17.84;54.42
52249;BME280;38541;48.130;8.378;2023-07-08T00:26:24;92979.56;;;17.86;53.82
52249;BME280;38541;48.130;8.378;2023-07-08T00:28:52;92975.22;;;17.90;54.43
52249;BME280;38541;48.130;8.378;2023-07-08T00:31:19;92975.41;;;17.94;54.93
52249;BME280;38541;48.130;8.378;2023-07-08T00:33:52;92970.41;;;17.92;54.55
52249;BME280;38541;48.130;8.378;2023-07-08T00:36:23;92970.63;;;17.82;54.66
52249;BME280;38541;48.130;8.378;2023-07-08T00:38:51;92983.09;;;17.73;55.01
52249;BME280;38541;48.130;8.378;2023-07-08T00:43:59;92979.56;;;17.63;55.37
52249;BME280;38541;48.130;8.378;2023-07-08T00:51:35;92977.97;;;17.62;56.10
52249;BME280;38541;48.130;8.378;2023-07-08T00:54:05;92986.06;;;17.57;55.70
52249;BME280;38541;48.130;8.378;2023-07-08T00:56:41;92992.88;;;17.49;56.04
52249;BME280;38541;48.130;8.378;2023-07-08T00:59:11;92980.50;;;17.45;56.41
52249;BME280;38541;48.130;8.378;2023-07-08T01:01:42;92988.47;;;17.45;56.30
52249;BME280;38541;48.130;8.378;2023-07-08T01:04:17;92987.84;;;17.48;56.31
52249;BME280;38541;48.130;8.378;2023-07-08T01:06:47;92995.94;;;17.43;56.45
52249;BME280;38541;48.130;8.378;2023-07-08T01:09:28;92996.31;;;17.50;56.53
52249;BME280;38541;48.130;8.378;2023-07-08T01:12:02;92999.09;;;17.45;56.23
52249;BME280;38541;48.130;8.378;2023-07-08T01:14:31;93001.75;;;17.31;56.27
52249;BME280;38541;48.130;8.378;2023-07-08T01:16:59;93005.41;;;17.21;56.67
52249;BME280;38541;48.130;8.378;2023-07-08T01:19:26;93012.50;;;17.25;57.11
52249;BME280;38541;48.130;8.378;2023-07-08T01:22:04;93006.19;;;17.21;57.18
52249;BME280;38541;48.130;8.378;2023-07-08T01:24:33;93000.63;;;17.09;57.26
52249;BME280;38541;48.130;8.378;2023-07-08T01:27:02;92994.50;;;17.08;57.13
52249;BME280;38541;48.130;8.378;2023-07-08T01:29:31;93001.69;;;17.08;57.28
52249;BME280;38541;48.130;8.378;2023-07-08T01:31:58;92998.72;;;17.09;57.63
52249;BME280;38541;48.130;8.378;2023-07-08T01:34:30;93005.81;;;17.00;57.25
52249;BME280;38541;48.130;8.378;2023-07-08T01:36:59;93005.59;;;16.96;57.84
52249;BME280;38541;48.130;8.378;2023-07-08T01:39:29;93001.47;;;16.90;57.67
52249;BME280;38541;48.130;8.378;2023-07-08T01:41:56;93002.03;;;16.73;58.09
52249;BME280;38541;48.130;8.378;2023-07-08T01:44:32;93002.03;;;16.73;58.21
52249;BME280;38541;48.130;8.378;2023-07-08T01:47:03;93004.19;;;16.71;58.40
52249;BME280;38541;48.130;8.378;2023-07-08T01:49:32;93007.44;;;16.68;58.75
52249;BME280;38541;48.130;8.378;2023-07-08T01:52:01;93010.00;;;16.73;58.75
52249;BME280;38541;48.130;8.378;2023-07-08T01:54:28;93007.53;;;16.77;58.81
52249;BME280;38541;48.130;8.378;2023-07-08T01:56:57;92999.00;;;16.66;58.32
52249;BME280;38541;48.130;8.378;2023-07-08T01:59:24;93004.31;;;16.66;58.53
52249;BME280;38541;48.130;8.378;2023-07-08T02:01:52;93012.03;;;16.62;58.72
52249;BME280;38541;48.130;8.378;2023-07-08T02:04:22;93007.53;;;16.63;58.68
52249;BME280;38541;48.130;8.378;2023-07-08T02:06:57;92998.88;;;16.57;58.88
52249;BME280;38541;48.130;8.378;2023-07-08T02:09:26;93000.13;;;16.46;59.17
52249;BME280;38541;48.130;8.378;2023-07-08T02:11:53;92999.72;;;16.38;59.69
52249;BME280;38541;48.130;8.378;2023-07-08T02:14:20;92994.16;;;16.40;59.51
52249;BME280;38541;48.130;8.378;2023-07-08T02:16:47;92982.53;;;16.36;59.88
52249;BME280;38541;48.130;8.378;2023-07-08T02:19:13;92985.50;;;16.34;60.11
52249;BME280;38541;48.130;8.378;2023-07-08T02:21:40;92980.97;;;16.35;60.09
52249;BME280;38541;48.130;8.378;2023-07-08T02:24:07;92979.88;;;16.36;59.92
52249;BME280;38541;48.130;8.378;2023-07-08T02:26:34;92975.25;;;16.28;59.62
52249;BME280;38541;48.130;8.378;2023-07-08T02:29:01;92968.38;;;16.26;59.64
52249;BME280;38541;48.130;8.378;2023-07-08T02:31:29;92970.53;;;16.24;59.83
52249;BME280;38541;48.130;8.378;2023-07-08T02:33:56;92966.50;;;16.27;60.28
52249;BME280;38541;48.130;8.378;2023-07-08T02:36:22;92964.16;;;16.25;60.11
52249;BME280;38541;48.130;8.378;2023-07-08T02:38:49;92969.75;;;16.24;60.07
52249;BME280;38541;48.130;8.378;2023-07-08T02:41:17;92967.41;;;16.22;60.02
52249;BME280;38541;48.130;8.378;2023-07-08T02:43:44;92968.75;;;16.20;60.05
52249;BME280;38541;48.130;8.378;2023-07-08T02:46:11;92962.38;;;16.21;59.69
52249;BME280;38541;48.130;8.378;2023-07-08T02:48:37;92972.28;;;16.15;59.54
52249;BME280;38541;48.130;8.378;2023-07-08T02:51:05;92973.25;;;16.19;59.69
52249;BME280;38541;48.130;8.378;2023-07-08T02:53:32;92972.28;;;16.15;60.15
52249;BME280;38541;48.130;8.378;2023-07-08T02:55:58;92970.91;;;16.18;59.28
52249;BME280;38541;48.130;8.378;2023-07-08T02:58:25;92964.81;;;16.17;59.27
52249;BME280;38541;48.130;8.378;2023-07-08T03:00:56;92970.59;;;16.19;59.00
52249;BME280;38541;48.130;8.378;2023-07-08T03:03:28;92968.47;;;16.21;59.47
52249;BME280;38541;48.130;8.378;2023-07-08T03:05:59;92975.84;;;16.24;58.95
52249;BME280;38541;48.130;8.378;2023-07-08T03:08:27;92969.56;;;16.20;59.11
52249;BME280;38541;48.130;8.378;2023-07-08T03:10:58;92978.28;;;16.21;59.55
52249;BME280;38541;48.130;8.378;2023-07-08T03:13:25;92975.03;;;16.24;59.29
52249;BME280;38541;48.130;8.378;2023-07-08T03:15:53;92975.25;;;16.28;59.52
52249;BME280;38541;48.130;8.378;2023-07-08T03:18:23;92974.66;;;16.31;59.22
52249;BME280;38541;48.130;8.378;2023-07-08T03:20:53;92981.34;;;16.28;59.21
52249;BME280;38541;48.130;8.378;2023-07-08T03:23:23;92990.69;;;16.25;59.45
52249;BME280;38541;48.130;8.378;2023-07-08T03:25:51;92997.06;;;16.24;58.89
52249;BME280;38541;48.130;8.378;2023-07-08T03:28:19;93004.50;;;16.22;59.29
52249;BME280;38541;48.130;8.378;2023-07-08T03:30:51;93012.47;;;16.22;59.45
52249;BME280;38541;48.130;8.378;2023-07-08T03:33:19;93012.38;;;16.28;59.42
52249;BME280;38541;48.130;8.378;2023-07-08T03:35:46;93008.94;;;16.27;59.60
52249;BME280;38541;48.130;8.378;2023-07-08T03:38:13;93006.50;;;16.31;60.03
52249;BME280;38541;48.130;8.378;2023-07-08T03:40:39;93015.25;;;16.31;59.88
52249;BME280;38541;48.130;8.378;2023-07-08T03:43:06;93008.56;;;16.34;60.26
52249;BME280;38541;48.130;8.378;2023-07-08T03:45:32;93006.88;;;16.38;59.65
52249;BME280;38541;48.130;8.378;2023-07-08T03:47:59;93016.63;;;16.43;60.02
52249;BME280;38541;48.130;8.378;2023-07-08T03:50:26;93019.19;;;16.48;59.58
52249;BME280;38541;48.130;8.378;2023-07-08T03:52:54;93024.78;;;16.46;59.50
52249;BME280;38541;48.130;8.378;2023-07-08T03:55:25;93035.50;;;16.41;59.91
52249;BME280;38541;48.130;8.378;2023-07-08T03:57:51;93034.97;;;16.39;59.68
52249;BME280;38541;48.130;8.378;2023-07-08T04:00:19;93038.66;;;16.43;59.35
52249;BME280;38541;48.130;8.378;2023-07-08T04:02:46;93039.03;;;16.50;58.62
52249;BME280;38541;48.130;8.378;2023-07-08T04:05:21;93038.94;;;16.55;59.01
52249;BME280;38541;48.130;8.378;2023-07-08T04:07:49;93054.38;;;16.53;59.81
52249;BME280;38541;48.130;8.378;2023-07-08T04:10:16;93054.88;;;16.55;59.33
52249;BME280;38541;48.130;8.378;2023-07-08T04:12:45;93047.81;;;16.65;59.23
52249;BME280;38541;48.130;8.378;2023-07-08T04:15:12;93053.72;;;16.62;59.10
52249;BME280;38541;48.130;8.378;2023-07-08T04:17:43;93061.97;;;16.74;59.26
52249;BME280;38541;48.130;8.378;2023-07-08T04:20:14;93050.88;;;16.72;60.26
52249;BME280;38541;48.130;8.378;2023-07-08T04:22:41;93050.00;;;16.91;56.50
52249;BME280;38541;48.130;8.378;2023-07-08T04:25:08;93057.81;;;17.01;57.85
52249;BME280;38541;48.130;8.378;2023-07-08T04:27:38;93059.78;;;17.09;56.69
52249;BME280;38541;48.130;8.378;2023-07-08T04:30:05;93068.56;;;17.24;58.35
52249;BME280;38541;48.130;8.378;2023-07-08T04:32:31;93065.41;;;17.22;57.99
52249;BME280;38541;48.130;8.378;2023-07-08T04:34:58;93066.19;;;17.36;57.04
52249;BME280;38541;48.130;8.378;2023-07-08T04:37:24;93066.47;;;17.49;57.44
52249;BME280;38541;48.130;8.378;2023-07-08T04:39:51;93064.69;;;17.58;57.06
52249;BME280;38541;48.130;8.378;2023-07-08T04:42:17;93068.31;;;17.62;58.13
52249;BME280;38541;48.130;8.378;2023-07-08T04:44:44;93068.69;;;17.69;58.54
52249;BME280;38541;48.130;8.378;2023-07-08T04:47:11;93073.22;;;17.69;57.70
52249;BME280;38541;48.130;8.378;2023-07-08T04:49:40;93077.34;;;17.75;57.57
52249;BME280;38541;48.130;8.378;2023-07-08T04:52:07;93073.13;;;17.74;57.52
52249;BME280;38541;48.130;8.378;2023-07-08T04:54:33;93079.59;;;17.82;57.22
52249;BME280;38541;48.130;8.378;2023-07-08T04:57:00;93071.81;;;17.86;56.96
52249;BME280;38541;48.130;8.378;2023-07-08T04:59:26;93071.78;;;18.00;54.55
52249;BME280;38541;48.130;8.378;2023-07-08T05:01:53;93077.47;;;18.21;53.49
52249;BME280;38541;48.130;8.378;2023-07-08T05:04:21;93089.63;;;18.36;53.41
52249;BME280;38541;48.130;8.378;2023-07-08T05:06:49;93084.03;;;18.46;53.26
52249;BME280;38541;48.130;8.378;2023-07-08T05:09:16;93088.16;;;18.52;52.79
52249;BME280;38541;48.130;8.378;2023-07-08T05:11:43;93085.25;;;18.63;52.54
52249;BME280;38541;48.130;8.378;2023-07-08T05:14:11;93084.22;;;18.73;52.43
52249;BME280;38541;48.130;8.378;2023-07-08T05:16:39;93093.34;;;18.80;52.38
52249;BME280;38541;48.130;8.378;2023-07-08T05:19:06;93090.25;;;18.87;52.51
52249;BME280;38541;48.130;8.378;2023-07-08T05:21:33;93093.56;;;18.93;52.28
52249;BME280;38541;48.130;8.378;2023-07-08T05:24:02;93094.25;;;18.99;51.76
52249;BME280;38541;48.130;8.378;2023-07-08T05:26:30;93080.00;;;19.03;51.63
52249;BME280;38541;48.130;8.378;2023-07-08T05:28:56;93085.22;;;19.08;51.53
52249;BME280;38541;48.130;8.378;2023-07-08T05:31:23;93085.38;;;19.12;52.23
52249;BME280;38541;48.130;8.378;2023-07-08T05:34:09;93087.13;;;19.17;51.81
52249;BME280;38541;48.130;8.378;2023-07-08T05:36:36;93094.81;;;19.18;51.96
52249;BME280;38541;48.130;8.378;2023-07-08T05:39:02;93094.38;;;19.25;51.85
52249;BME280;38541;48.130;8.378;2023-07-08T05:41:29;93093.63;;;19.33;51.93
52249;BME280;38541;48.130;8.378;2023-07-08T05:43:55;93096.13;;;19.38;52.59
52249;BME280;38541;48.130;8.378;2023-07-08T05:46:22;93089.59;;;19.45;52.57
52249;BME280;38541;48.130;8.378;2023-07-08T05:48:48;93102.59;;;19.46;52.85
52249;BME280;38541;48.130;8.378;2023-07-08T05:51:17;93090.19;;;19.42;51.85
52249;BME280;38541;48.130;8.378;2023-07-08T05:53:43;93082.19;;;19.42;52.09
52249;BME280;38541;48.130;8.378;2023-07-08T05:56:10;93084.84;;;19.42;51.87
52249;BME280;38541;48.130;8.378;2023-07-08T05:58:36;93078.44;;;19.34;52.39
52249;BME280;38541;48.130;8.378;2023-07-08T06:01:03;93080.16;;;19.38;52.30
52249;BME280;38541;48.130;8.378;2023-07-08T06:03:30;93075.94;;;19.46;53.09
52249;BME280;38541;48.130;8.378;2023-07-08T06:05:57;93066.09;;;19.47;52.80
52249;BME280;38541;48.130;8.378;2023-07-08T06:08:23;93061.69;;;19.51;52.72
52249;BME280;38541;48.130;8.378;2023-07-08T06:10:50;93064.84;;;19.53;52.40
52249;BME280;38541;48.130;8.378;2023-07-08T06:13:17;93081.78;;;19.57;52.44
52249;BME280;38541;48.130;8.378;2023-07-08T06:15:44;93080.69;;;19.58;52.77
52249;BME280;38541;48.130;8.378;2023-07-08T06:18:10;93080.69;;;19.67;52.82
52249;BME280;38541;48.130;8.378;2023-07-08T06:20:37;93073.50;;;19.67;51.39
52249;BME280;38541;48.130;8.378;2023-07-08T06:23:03;93069.25;;;19.66;51.58
52249;BME280;38541;48.130;8.378;2023-07-08T06:25:31;93073.97;;;19.70;51.98
52249;BME280;38541;48.130;8.378;2023-07-08T06:27:57;93074.75;;;19.79;51.02
52249;BME280;38541;48.130;8.378;2023-07-08T06:30:24;93065.53;;;19.85;50.91
52249;BME280;38541;48.130;8.378;2023-07-08T06:32:50;93059.44;;;19.93;51.10
52249;BME280;38541;48.130;8.378;2023-07-08T06:35:17;93054.28;;;20.06;50.97
52249;BME280;38541;48.130;8.378;2023-07-08T06:37:44;93062.28;;;20.15;51.38
52249;BME280;38541;48.130;8.378;2023-07-08T06:40:11;93053.34;;;20.19;50.86
52249;BME280;38541;48.130;8.378;2023-07-08T06:42:37;93057.59;;;20.20;50.32
52249;BME280;38541;48.130;8.378;2023-07-08T06:45:11;93056.31;;;20.18;49.78
52249;BME280;38541;48.130;8.378;2023-07-08T06:47:37;93050.97;;;20.27;48.85
52249;BME280;38541;48.130;8.378;2023-07-08T06:50:04;93054.56;;;20.31;48.12
52249;BME280;38541;48.130;8.378;2023-07-08T06:52:31;93054.72;;;20.43;47.81
52249;BME280;38541;48.130;8.378;2023-07-08T06:55:01;93057.50;;;20.64;48.30
52249;BME280;38541;48.130;8.378;2023-07-08T06:57:31;93064.25;;;20.79;49.20
52249;BME280;38541;48.130;8.378;2023-07-08T06:59:57;93063.94;;;20.90;47.79
52249;BME280;38541;48.130;8.378;2023-07-08T07:02:24;93061.72;;;20.92;47.34
52249;BME280;38541;48.130;8.378;2023-07-08T07:04:51;93060.47;;;20.98;47.02
52249;BME280;38541;48.130;8.378;2023-07-08T07:07:17;93064.06;;;21.02;46.98
52249;BME280;38541;48.130;8.378;2023-07-08T07:09:44;93068.06;;;21.17;47.79
52249;BME280;38541;48.130;8.378;2023-07-08T07:12:10;93061.59;;;21.27;47.19
52249;BME280;38541;48.130;8.378;2023-07-08T07:14:37;93055.72;;;21.43;46.85
52249;BME280;38541;48.130;8.378;2023-07-08T07:17:06;93061.63;;;21.57;46.58
52249;BME280;38541;48.130;8.378;2023-07-08T07:19:35;93056.72;;;21.68;46.15
52249;BME280;38541;48.130;8.378;2023-07-08T07:22:01;93064.88;;;21.72;45.55
52249;BME280;38541;48.130;8.378;2023-07-08T07:24:28;93072.91;;;21.72;44.62
52249;BME280;38541;48.130;8.378;2023-07-08T07:26:55;93068.66;;;21.71;43.17
52249;BME280;38541;48.130;8.378;2023-07-08T07:29:22;93068.13;;;21.77;43.73
52249;BME280;38541;48.130;8.378;2023-07-08T07:31:49;93076.53;;;21.88;43.62
52249;BME280;38541;48.130;8.378;2023-07-08T07:34:17;93070.13;;;21.89;44.18
52249;BME280;38541;48.130;8.378;2023-07-08T07:36:44;93074.63;;;21.98;42.85
52249;BME280;38541;48.130;8.378;2023-07-08T07:39:10;93080.88;;;22.02;43.04
52249;BME280;38541;48.130;8.378;2023-07-08T07:41:37;93071.28;;;22.01;43.13
52249;BME280;38541;48.130;8.378;2023-07-08T07:44:03;93079.66;;;21.99;44.20
52249;BME280;38541;48.130;8.378;2023-07-08T07:46:30;93080.41;;;22.00;42.62
52249;BME280;38541;48.130;8.378;2023-07-08T07:48:56;93080.16;;;21.92;41.68
52249;BME280;38541;48.130;8.378;2023-07-08T07:51:23;93081.72;;;21.93;41.53
52249;BME280;38541;48.130;8.378;2023-07-08T07:53:49;93093.47;;;22.01;41.97
52249;BME280;38541;48.130;8.378;2023-07-08T07:56:16;93077.81;;;22.12;42.22
52249;BME280;38541;48.130;8.378;2023-07-08T07:58:42;93090.03;;;22.22;42.25
52249;BME280;38541;48.130;8.378;2023-07-08T08:01:09;93082.13;;;22.26;42.01
52249;BME280;38541;48.130;8.378;2023-07-08T08:03:36;93083.69;;;22.27;42.04
52249;BME280;38541;48.130;8.378;2023-07-08T08:06:02;93081.72;;;22.36;42.58
52249;BME280;38541;48.130;8.378;2023-07-08T08:08:29;93082.63;;;22.40;42.91
52249;BME280;38541;48.130;8.378;2023-07-08T08:10:56;93088.88;;;22.44;42.44
52249;BME280;38541;48.130;8.378;2023-07-08T08:13:22;93089.66;;;22.54;42.63
52249;BME280;38541;48.130;8.378;2023-07-08T08:15:49;93088.31;;;22.60;42.96
52249;BME280;38541;48.130;8.378;2023-07-08T08:18:21;93093.34;;;22.61;41.73
52249;BME280;38541;48.130;8.378;2023-07-08T08:20:50;93099.94;;;22.64;42.04
52249;BME280;38541;48.130;8.378;2023-07-08T08:23:17;93095.97;;;22.70;41.91
52249;BME280;38541;48.130;8.378;2023-07-08T08:25:44;93090.97;;;22.81;42.37
52249;BME280;38541;48.130;8.378;2023-07-08T08:28:10;93099.81;;;22.94;42.36
52249;BME280;38541;48.130;8.378;2023-07-08T08:30:37;93098.63;;;23.04;42.20
52249;BME280;38541;48.130;8.378;2023-07-08T08:33:04;93104.34;;;23.15;43.30
52249;BME280;38541;48.130;8.378;2023-07-08T08:35:30;93105.03;;;23.24;41.36
52249;BME280;38541;48.130;8.378;2023-07-08T08:37:57;93110.06;;;23.26;39.57
52249;BME280;38541;48.130;8.378;2023-07-08T08:40:23;93110.19;;;23.29;39.42
52249;BME280;38541;48.130;8.378;2023-07-08T08:43:02;93109.31;;;23.37;40.38
52249;BME280;38541;48.130;8.378;2023-07-08T08:46:06;93107.53;;;23.42;39.78
52249;BME280;38541;48.130;8.378;2023-07-08T08:48:27;93097.03;;;23.49;41.31
52249;BME280;38541;48.130;8.378;2023-07-08T08:51:00;93128.31;;;23.57;39.64
52249;BME280;38541;48.130;8.378;2023-07-08T08:53:31;93127.44;;;23.53;39.64
52249;BME280;38541;48.130;8.378;2023-07-08T08:56:05;93121.84;;;23.58;39.83
52249;BME280;38541;48.130;8.378;2023-07-08T08:58:43;93129.44;;;23.56;39.26
52249;BME280;38541;48.130;8.378;2023-07-08T09:01:13;93133.03;;;23.60;39.83
52249;BME280;38541;48.130;8.378;2023-07-08T09:04:00;93131.00;;;23.57;40.05
52249;BME280;38541;48.130;8.378;2023-07-08T09:06:32;93141.72;;;23.57;39.45
52249;BME280;38541;48.130;8.378;2023-07-08T09:09:15;93138.06;;;23.62;39.52
52249;BME280;38541;48.130;8.378;2023-07-08T09:12:18;93129.69;;;23.63;39.55
52249;BME280;38541;48.130;8.378;2023-07-08T09:14:45;93126.22;;;23.75;39.64
52249;BME280;38541;48.130;8.378;2023-07-08T09:17:32;93132.34;;;23.76;38.70
52249;BME280;38541;48.130;8.378;2023-07-08T09:27:42;93129.22;;;23.74;39.80
52249;BME280;38541;48.130;8.378;2023-07-08T09:30:13;93135.25;;;23.71;40.42
52249;BME280;38541;48.130;8.378;2023-07-08T09:32:40;93133.69;;;23.70;40.80
52249;BME280;38541;48.130;8.378;2023-07-08T09:35:08;93130.56;;;23.68;42.16
52249;BME280;38541;48.130;8.378;2023-07-08T09:37:37;93128.00;;;23.59;40.43
52249;BME280;38541;48.130;8.378;2023-07-08T09:40:17;93137.28;;;23.61;40.22
52249;BME280;38541;48.130;8.378;2023-07-08T09:42:48;93135.47;;;23.53;40.11
52249;BME280;38541;48.130;8.378;2023-07-08T09:45:18;93132.78;;;23.53;40.98
52249;BME280;38541;48.130;8.378;2023-07-08T09:47:46;93136.94;;;23.63;41.00
52249;BME280;38541;48.130;8.378;2023-07-08T09:50:31;93135.16;;;23.55;40.95
52249;BME280;38541;48.130;8.378;2023-07-08T09:53:00;93133.13;;;23.64;40.92
52249;BME280;38541;48.130;8.378;2023-07-08T09:55:27;93129.66;;;23.76;41.22
52249;BME280;38541;48.130;8.378;2023-07-08T09:57:56;93121.06;;;23.83;40.58
52249;BME280;38541;48.130;8.378;2023-07-08T10:00:31;93131.34;;;23.93;41.67
52249;BME280;38541;48.130;8.378;2023-07-08T10:03:05;93124.78;;;24.03;39.71
52249;BME280;38541;48.130;8.378;2023-07-08T10:05:38;93123.41;;;24.09;39.71
52249;BME280;38541;48.130;8.378;2023-07-08T10:08:14;93132.03;;;24.15;38.59
52249;BME280;38541;48.130;8.378;2023-07-08T10:10:43;93122.41;;;24.14;39.14
52249;BME280;38541;48.130;8.378;2023-07-08T10:15:43;93127.66;;;24.22;38.39
52249;BME280;38541;48.130;8.378;2023-07-08T10:18:15;93135.09;;;24.42;39.25
52249;BME280;38541;48.130;8.378;2023-07-08T10:23:34;93127.50;;;24.72;38.45
52249;BME280;38541;48.130;8.378;2023-07-08T10:26:22;93119.59;;;24.92;37.21
52249;BME280;38541;48.130;8.378;2023-07-08T10:29:28;93122.75;;;24.94;37.67
52249;BME280;38541;48.130;8.378;2023-07-08T10:32:13;93135.94;;;24.99;37.55
52249;BME280;38541;48.130;8.378;2023-07-08T10:35:00;93122.50;;;24.99;35.98
52249;BME280;38541;48.130;8.378;2023-07-08T10:37:38;93132.31;;;25.07;37.71
52249;BME280;38541;48.130;8.378;2023-07-08T10:43:22;93130.78;;;25.23;35.71
52249;BME280;38541;48.130;8.378;2023-07-08T10:51:29;93137.59;;;25.64;37.51
52249;BME280;38541;48.130;8.378;2023-07-08T10:56:55;93140.13;;;25.89;35.56
52249;BME280;38541;48.130;8.378;2023-07-08T10:59:41;93145.03;;;26.19;36.07
52249;BME280;38541;48.130;8.378;2023-07-08T11:02:39;93138.31;;;26.29;34.02
52249;BME280;38541;48.130;8.378;2023-07-08T11:05:37;93132.75;;;26.58;33.72
52249;BME280;38541;48.130;8.378;2023-07-08T11:08:35;93138.88;;;26.94;34.85
52249;BME280;38541;48.130;8.378;2023-07-08T11:11:01;93125.53;;;27.21;35.68
52249;BME280;38541;48.130;8.378;2023-07-08T11:13:48;93133.63;;;27.21;33.54
52249;BME280;38541;48.130;8.378;2023-07-08T11:16:32;93123.34;;;27.30;34.44
52249;BME280;38541;48.130;8.378;2023-07-08T11:19:16;93119.66;;;27.39;33.97
52249;BME280;38541;48.130;8.378;2023-07-08T11:21:47;93129.97;;;27.56;32.92
52249;BME280;38541;48.130;8.378;2023-07-08T11:26:53;93124.59;;;27.13;33.83
52249;BME280;38541;48.130;8.378;2023-07-08T11:29:30;93128.22;;;27.21;32.50
52249;BME280;38541;48.130;8.378;2023-07-08T11:32:03;93120.97;;;27.25;32.63
52249;BME280;38541;48.130;8.378;2023-07-08T11:34:30;93128.63;;;27.23;33.07
52249;BME280;38541;48.130;8.378;2023-07-08T11:37:00;93118.69;;;27.27;33.52
52249;BME280;38541;48.130;8.378;2023-07-08T11:39:28;93118.34;;;27.52;33.62
52249;BME280;38541;48.130;8.378;2023-07-08T11:44:42;93117.34;;;27.60;32.67
52249;BME280;38541;48.130;8.378;2023-07-08T11:47:17;93111.44;;;27.78;33.12
52249;BME280;38541;48.130;8.378;2023-07-08T11:49:47;93102.09;;;27.72;33.11
52249;BME280;38541;48.130;8.378;2023-07-08T11:52:18;93113.34;;;27.77;34.07
52249;BME280;38541;48.130;8.378;2023-07-08T11:54:46;93115.22;;;27.97;32.18
52249;BME280;38541;48.130;8.378;2023-07-08T11:57:27;93119.56;;;27.78;32.37
52249;BME280;38541;48.130;8.378;2023-07-08T12:00:24;93116.13;;;28.08;32.11
52249;BME280;38541;48.130;8.378;2023-07-08T12:02:57;93110.75;;;27.85;31.85
52249;BME280;38541;48.130;8.378;2023-07-08T12:05:35;93112.78;;;27.91;31.84
52249;BME280;38541;48.130;8.378;2023-07-08T12:08:11;93113.31;;;28.01;32.00
52249;BME280;38541;48.130;8.378;2023-07-08T12:10:40;93111.88;;;28.07;32.60
52249;BME280;38541;48.130;8.378;2023-07-08T12:13:13;93111.38;;;28.25;32.38
52249;BME280;38541;48.130;8.378;2023-07-08T12:15:41;93117.56;;;28.25;30.63
52249;BME280;38541;48.130;8.378;2023-07-08T12:18:17;93108.19;;;28.46;31.49
52249;BME280;38541;48.130;8.378;2023-07-08T12:21:08;93108.34;;;28.91;31.58
52249;BME280;38541;48.130;8.378;2023-07-08T12:23:33;93114.47;;;29.22;29.60
52249;BME280;38541;48.130;8.378;2023-07-08T12:26:00;93116.22;;;29.41;29.86
52249;BME280;38541;48.130;8.378;2023-07-08T12:28:26;93110.06;;;29.44;29.89
52249;BME280;38541;48.130;8.378;2023-07-08T12:30:53;93113.75;;;29.70;29.21
52249;BME280;38541;48.130;8.378;2023-07-08T12:33:28;93124.31;;;29.83;28.57
52249;BME280;38541;48.130;8.378;2023-07-08T12:35:56;93119.53;;;29.65;29.14
52249;BME280;38541;48.130;8.378;2023-07-08T12:38:32;93111.34;;;29.20;29.66
52249;BME280;38541;48.130;8.378;2023-07-08T12:41:02;93107.97;;;29.72;29.59
52249;BME280;38541;48.130;8.378;2023-07-08T12:43:31;93112.09;;;30.03;28.50
52249;BME280;38541;48.130;8.378;2023-07-08T12:45:58;93118.47;;;30.33;28.41
52249;BME280;38541;48.130;8.378;2023-07-08T12:48:25;93119.63;;;30.32;29.54
52249;BME280;38541;48.130;8.378;2023-07-08T12:50:51;93113.63;;;30.71;27.75
52249;BME280;38541;48.130;8.378;2023-07-08T12:53:18;93103.63;;;30.83;26.60
52249;BME280;38541;48.130;8.378;2023-07-08T12:55:45;93109.84;;;30.91;26.68
52249;BME280;38541;48.130;8.378;2023-07-08T12:58:14;93111.28;;;30.70;26.13
52249;BME280;38541;48.130;8.378;2023-07-08T13:00:45;93106.75;;;30.92;26.03
52249;BME280;38541;48.130;8.378;2023-07-08T13:03:17;93115.03;;;32.19;23.32
52249;BME280;38541;48.130;8.378;2023-07-08T13:05:45;93109.16;;;33.39;23.47
52249;BME280;38541;48.130;8.378;2023-07-08T13:08:17;93111.03;;;34.06;23.11
52249;BME280;38541;48.130;8.378;2023-07-08T13:10:45;93115.03;;;33.94;22.87
52249;BME280;38541;48.130;8.378;2023-07-08T13:13:17;93116.28;;;33.85;24.03
52249;BME280;38541;48.130;8.378;2023-07-08T13:15:48;93107.63;;;33.94;23.11
52249;BME280;38541;48.130;8.378;2023-07-08T13:18:16;93100.94;;;34.03;23.61
52249;BME280;38541;48.130;8.378;2023-07-08T13:20:51;93117.78;;;35.09;21.85
52249;BME280;38541;48.130;8.378;2023-07-08T13:23:18;93113.47;;;35.39;20.45
52249;BME280;38541;48.130;8.378;2023-07-08T13:25:48;93119.34;;;34.75;22.34
52249;BME280;38541;48.130;8.378;2023-07-08T13:28:23;93115.28;;;34.87;21.31
52249;BME280;38541;48.130;8.378;2023-07-08T13:31:02;93119.28;;;33.95;23.42
52249;BME280;38541;48.130;8.378;2023-07-08T13:33:31;93114.22;;;34.42;22.79
52249;BME280;38541;48.130;8.378;2023-07-08T13:36:01;93115.16;;;35.02;22.87
52249;BME280;38541;48.130;8.378;2023-07-08T13:38:33;93107.34;;;34.96;22.39
52249;BME280;38541;48.130;8.378;2023-07-08T13:41:03;93105.38;;;35.00;21.60
52249;BME280;38541;48.130;8.378;2023-07-08T13:43:32;93109.03;;;34.13;22.38
52249;BME280;38541;48.130;8.378;2023-07-08T13:45:59;93109.84;;;33.61;22.70
52249;BME280;38541;48.130;8.378;2023-07-08T13:48:28;93114.03;;;33.06;23.94
52249;BME280;38541;48.130;8.378;2023-07-08T13:51:01;93105.09;;;33.05;25.15
52249;BME280;38541;48.130;8.378;2023-07-08T13:56:22;93109.16;;;32.57;25.50